Paganini — V2CL8 — position and weather

sailwx.info

Track history (hours):
 
Tides and Currents Weather Stations Pressure Air Temp Water Temp Dewpoint Dewpoint Depression Visibility Wind Speed Wind Dir Waves Ship Positions

Paganini

Last reported at 2014-Nov-22 03:08 UTC. Time now 2014-Nov-24 15:01 UTC.
Position N 38°38' W 009°42'.

Length 90 m; draft 3.8 m.

Type: Cargo ship. MMSI: 305040000.

Date/timePositionNaut miles runAvg speedWind from/ knotsBaromVisibWave heightAir tempDewpointWater temp
2014-Nov-22 03:08N 38°38' W 009°42'7 9.0
2014-Nov-22 02:22N 38°38' W 009°33'8 8.8
2014-Nov-22 01:30N 38°37' W 009°23'7 7.3
2014-Nov-22 00:33N 38°41' W 009°16'8 7.6
2014-Nov-21 23:34N 38°41' W 009°07'2 1.9
2014-Nov-21 22:32N 38°40' W 009°04'0 0.0
2014-Nov-21 21:32N 38°40' W 009°04'0 0.0
2014-Nov-21 20:32N 38°40' W 009°04'0 0.0
2014-Nov-21 19:32N 38°40' W 009°04'0 0.0
2014-Nov-21 18:32N 38°40' W 009°04'0 0.0
2014-Nov-21 17:32N 38°40' W 009°04'0 0.0
2014-Nov-21 16:32N 38°40' W 009°04'0 0.0
2014-Nov-21 15:32N 38°40' W 009°04'0 0.0
2014-Nov-21 14:29N 38°40' W 009°04'0 0.0
2014-Nov-21 13:32N 38°40' W 009°04'0 0.0
2014-Nov-21 12:32N 38°40' W 009°04'0 0.0
2014-Nov-21 11:32N 38°40' W 009°04'0 0.0
2014-Nov-21 10:32N 38°40' W 009°04'0 0.0
2014-Nov-21 09:32N 38°40' W 009°04'0 0.0
2014-Nov-21 08:32N 38°40' W 009°04'0 0.0
2014-Nov-21 07:32N 38°40' W 009°04'0 0.0
2014-Nov-21 06:32N 38°40' W 009°04'0 0.0
2014-Nov-21 05:32N 38°40' W 009°04'0 0.0
2014-Nov-21 04:32N 38°40' W 009°04'0 0.0
2014-Nov-21 03:32N 38°40' W 009°04'0 0.0
2014-Nov-21 02:32N 38°40' W 009°04'0 0.0
2014-Nov-21 01:32N 38°40' W 009°04'0 0.0
2014-Nov-21 00:32N 38°40' W 009°04'2 2.0
2014-Nov-20 23:33N 38°41' W 009°07'8 8.0
2014-Nov-20 22:32N 38°41' W 009°17'  
2014-Nov-14 21:26N 53°33' W 003°24'8 9.3
2014-Nov-14 20:33N 53°32' W 003°11'8 8.1
2014-Nov-14 19:33N 53°26' W 003°01'0 0.3
2014-Nov-14 18:33N 53°26' W 003°00'0 0.1
2014-Nov-14 17:28N 53°26' W 003°00'0 0.0
2014-Nov-14 16:28N 53°26' W 003°00'0 0.0
2014-Nov-14 15:28N 53°26' W 003°00'0 0.0
2014-Nov-14 14:28N 53°26' W 003°00'0 0.0
2014-Nov-14 12:28N 53°26' W 003°00'0 0.0
2014-Nov-14 11:28N 53°26' W 003°00'0 0.0
2014-Nov-14 10:28N 53°26' W 003°00'0 0.0
2014-Nov-14 09:28N 53°26' W 003°00'0 0.0
2014-Nov-14 08:28N 53°26' W 003°00'0 0.0
2014-Nov-14 07:28N 53°26' W 003°00'0 0.0
2014-Nov-14 06:28N 53°26' W 003°00'0 0.0
2014-Nov-14 05:28N 53°26' W 003°00'0 0.0
2014-Nov-14 04:28N 53°26' W 003°00'0 0.0
2014-Nov-14 03:28N 53°26' W 003°00'0 0.0
2014-Nov-14 02:28N 53°26' W 003°00'0 0.0
2014-Nov-14 01:28N 53°26' W 003°00'0 0.0
2014-Nov-14 00:28N 53°26' W 003°00'0 0.0
2014-Nov-13 23:28N 53°26' W 003°00'0 0.0
2014-Nov-13 22:28N 53°26' W 003°00'0 0.5
2014-Nov-13 21:33N 53°27' W 003°01'0 0.4
2014-Nov-13 20:34N 53°27' W 003°01'4 4.1
2014-Nov-13 19:33N 53°30' W 003°06'9 8.6
2014-Nov-13 18:33N 53°31' W 003°20'16 7.9
2014-Nov-13 16:31N 53°31' W 003°47'68 8.4
2014-Nov-13 08:20N 53°45' W 005°40'6 6.8
2014-Nov-13 07:29N 53°45' W 005°50'6 6.1
2014-Nov-13 06:33N 53°47' W 005°59'3 3.4
2014-Nov-13 05:33N 53°47' W 006°05'2 1.6
2014-Nov-13 04:33N 53°45' W 006°04'2 1.6
2014-Nov-13 03:32N 53°44' W 006°03'4 4.2
2014-Nov-13 02:33N 53°43' W 006°10'  
Track history (hours):
 
Tides and Currents Weather Stations Pressure Air Temp Water Temp Dewpoint Dewpoint Depression Visibility Wind Speed Wind Dir Waves Ship Positions

Paganini

Last reported at 2014-Nov-22 03:08 UTC. Time now 2014-Nov-24 15:01 UTC.
Position N 38°38' W 009°42'.

Length 90 m; draft 3.8 m.

Type: Cargo ship. MMSI: 305040000.

Date/timePositionNaut miles runAvg speedWind from/ knotsBaromVisibWave heightAir tempDewpointWater temp
2014-Nov-22 03:08N 38°38' W 009°42'7 9.0
2014-Nov-22 02:22N 38°38' W 009°33'8 8.8
2014-Nov-22 01:30N 38°37' W 009°23'7 7.3
2014-Nov-22 00:33N 38°41' W 009°16'8 7.6
2014-Nov-21 23:34N 38°41' W 009°07'2 1.9
2014-Nov-21 22:32N 38°40' W 009°04'0 0.0
2014-Nov-21 21:32N 38°40' W 009°04'0 0.0
2014-Nov-21 20:32N 38°40' W 009°04'0 0.0
2014-Nov-21 19:32N 38°40' W 009°04'0 0.0
2014-Nov-21 18:32N 38°40' W 009°04'0 0.0
2014-Nov-21 17:32N 38°40' W 009°04'0 0.0
2014-Nov-21 16:32N 38°40' W 009°04'0 0.0
2014-Nov-21 15:32N 38°40' W 009°04'0 0.0
2014-Nov-21 14:29N 38°40' W 009°04'0 0.0
2014-Nov-21 13:32N 38°40' W 009°04'0 0.0
2014-Nov-21 12:32N 38°40' W 009°04'0 0.0
2014-Nov-21 11:32N 38°40' W 009°04'0 0.0
2014-Nov-21 10:32N 38°40' W 009°04'0 0.0
2014-Nov-21 09:32N 38°40' W 009°04'0 0.0
2014-Nov-21 08:32N 38°40' W 009°04'0 0.0
2014-Nov-21 07:32N 38°40' W 009°04'0 0.0
2014-Nov-21 06:32N 38°40' W 009°04'0 0.0
2014-Nov-21 05:32N 38°40' W 009°04'0 0.0
2014-Nov-21 04:32N 38°40' W 009°04'0 0.0
2014-Nov-21 03:32N 38°40' W 009°04'0 0.0
2014-Nov-21 02:32N 38°40' W 009°04'0 0.0
2014-Nov-21 01:32N 38°40' W 009°04'0 0.0
2014-Nov-21 00:32N 38°40' W 009°04'2 2.0
2014-Nov-20 23:33N 38°41' W 009°07'8 8.0
2014-Nov-20 22:32N 38°41' W 009°17'  
2014-Nov-14 21:26N 53°33' W 003°24'8 9.3
2014-Nov-14 20:33N 53°32' W 003°11'8 8.1
2014-Nov-14 19:33N 53°26' W 003°01'0 0.3
2014-Nov-14 18:33N 53°26' W 003°00'0 0.1
2014-Nov-14 17:28N 53°26' W 003°00'0 0.0
2014-Nov-14 16:28N 53°26' W 003°00'0 0.0
2014-Nov-14 15:28N 53°26' W 003°00'0 0.0
2014-Nov-14 14:28N 53°26' W 003°00'0 0.0
2014-Nov-14 12:28N 53°26' W 003°00'0 0.0
2014-Nov-14 11:28N 53°26' W 003°00'0 0.0
2014-Nov-14 10:28N 53°26' W 003°00'0 0.0
2014-Nov-14 09:28N 53°26' W 003°00'0 0.0
2014-Nov-14 08:28N 53°26' W 003°00'0 0.0
2014-Nov-14 07:28N 53°26' W 003°00'0 0.0
2014-Nov-14 06:28N 53°26' W 003°00'0 0.0
2014-Nov-14 05:28N 53°26' W 003°00'0 0.0
2014-Nov-14 04:28N 53°26' W 003°00'0 0.0
2014-Nov-14 03:28N 53°26' W 003°00'0 0.0
2014-Nov-14 02:28N 53°26' W 003°00'0 0.0
2014-Nov-14 01:28N 53°26' W 003°00'0 0.0
2014-Nov-14 00:28N 53°26' W 003°00'0 0.0
2014-Nov-13 23:28N 53°26' W 003°00'0 0.0
2014-Nov-13 22:28N 53°26' W 003°00'0 0.5
2014-Nov-13 21:33N 53°27' W 003°01'0 0.4
2014-Nov-13 20:34N 53°27' W 003°01'4 4.1
2014-Nov-13 19:33N 53°30' W 003°06'9 8.6
2014-Nov-13 18:33N 53°31' W 003°20'16 7.9
2014-Nov-13 16:31N 53°31' W 003°47'68 8.4
2014-Nov-13 08:20N 53°45' W 005°40'6 6.8
2014-Nov-13 07:29N 53°45' W 005°50'6 6.1
2014-Nov-13 06:33N 53°47' W 005°59'3 3.4
2014-Nov-13 05:33N 53°47' W 006°05'2 1.6
2014-Nov-13 04:33N 53°45' W 006°04'2 1.6
2014-Nov-13 03:32N 53°44' W 006°03'4 4.2
2014-Nov-13 02:33N 53°43' W 006°10'  

Dump ship's entire track history